sensor_id;sensor_type;location;lat;lon;timestamp;P1;durP1;ratioP1;P2;durP2;ratioP2
24151;SDS011;12311;50.866;4.332;2022-09-29T00:01:53;6.50;;;2.58;;
24151;SDS011;12311;50.866;4.332;2022-09-29T00:04:19;8.52;;;3.25;;
24151;SDS011;12311;50.866;4.332;2022-09-29T00:06:45;4.07;;;2.55;;
24151;SDS011;12311;50.866;4.332;2022-09-29T00:09:10;3.85;;;2.65;;
24151;SDS011;12311;50.866;4.332;2022-09-29T00:11:36;6.10;;;2.88;;
24151;SDS011;12311;50.866;4.332;2022-09-29T00:14:01;10.63;;;3.75;;
24151;SDS011;12311;50.866;4.332;2022-09-29T00:16:27;5.05;;;2.80;;
24151;SDS011;12311;50.866;4.332;2022-09-29T00:18:54;3.45;;;2.35;;
24151;SDS011;12311;50.866;4.332;2022-09-29T00:21:20;5.80;;;2.95;;
24151;SDS011;12311;50.866;4.332;2022-09-29T00:23:46;3.88;;;2.35;;
24151;SDS011;12311;50.866;4.332;2022-09-29T00:26:14;3.30;;;2.28;;
24151;SDS011;12311;50.866;4.332;2022-09-29T00:28:46;5.55;;;2.78;;
24151;SDS011;12311;50.866;4.332;2022-09-29T00:31:21;8.57;;;2.92;;
24151;SDS011;12311;50.866;4.332;2022-09-29T00:33:48;5.78;;;2.42;;
24151;SDS011;12311;50.866;4.332;2022-09-29T00:36:15;5.00;;;2.13;;
24151;SDS011;12311;50.866;4.332;2022-09-29T00:38:42;7.22;;;2.90;;
24151;SDS011;12311;50.866;4.332;2022-09-29T00:41:18;5.43;;;2.60;;
24151;SDS011;12311;50.866;4.332;2022-09-29T00:43:55;6.43;;;2.47;;
24151;SDS011;12311;50.866;4.332;2022-09-29T00:49:14;3.97;;;3.08;;
24151;SDS011;12311;50.866;4.332;2022-09-29T00:51:47;5.03;;;2.78;;
24151;SDS011;12311;50.866;4.332;2022-09-29T00:54:20;6.43;;;2.80;;
24151;SDS011;12311;50.866;4.332;2022-09-29T00:56:47;4.55;;;2.63;;
24151;SDS011;12311;50.866;4.332;2022-09-29T00:59:16;7.55;;;3.13;;
24151;SDS011;12311;50.866;4.332;2022-09-29T01:01:56;9.10;;;2.58;;
24151;SDS011;12311;50.866;4.332;2022-09-29T01:04:22;6.20;;;3.03;;
24151;SDS011;12311;50.866;4.332;2022-09-29T01:06:50;6.25;;;2.67;;
24151;SDS011;12311;50.866;4.332;2022-09-29T01:11:49;5.90;;;3.17;;
24151;SDS011;12311;50.866;4.332;2022-09-29T01:14:19;6.07;;;2.85;;
24151;SDS011;12311;50.866;4.332;2022-09-29T01:16:46;9.77;;;2.65;;
24151;SDS011;12311;50.866;4.332;2022-09-29T01:19:56;6.03;;;2.75;;
24151;SDS011;12311;50.866;4.332;2022-09-29T01:22:31;4.65;;;2.80;;
24151;SDS011;12311;50.866;4.332;2022-09-29T01:33:33;5.35;;;3.03;;
24151;SDS011;12311;50.866;4.332;2022-09-29T01:41:49;4.85;;;2.20;;
24151;SDS011;12311;50.866;4.332;2022-09-29T01:48:00;6.72;;;3.08;;
24151;SDS011;12311;50.866;4.332;2022-09-29T01:50:12;4.70;;;2.63;;
24151;SDS011;12311;50.866;4.332;2022-09-29T01:52:43;4.15;;;2.88;;
24151;SDS011;12311;50.866;4.332;2022-09-29T01:55:14;4.90;;;3.00;;
24151;SDS011;12311;50.866;4.332;2022-09-29T02:00:15;6.70;;;3.55;;
24151;SDS011;12311;50.866;4.332;2022-09-29T02:05:20;10.75;;;3.88;;
24151;SDS011;12311;50.866;4.332;2022-09-29T02:08:00;5.55;;;2.80;;
24151;SDS011;12311;50.866;4.332;2022-09-29T02:10:36;4.18;;;2.30;;
24151;SDS011;12311;50.866;4.332;2022-09-29T02:13:09;5.80;;;3.05;;
24151;SDS011;12311;50.866;4.332;2022-09-29T02:15:38;5.88;;;2.70;;
24151;SDS011;12311;50.866;4.332;2022-09-29T02:18:10;4.93;;;2.67;;
24151;SDS011;12311;50.866;4.332;2022-09-29T02:20:45;4.40;;;2.15;;
24151;SDS011;12311;50.866;4.332;2022-09-29T02:23:12;4.53;;;2.83;;
24151;SDS011;12311;50.866;4.332;2022-09-29T02:25:38;6.65;;;3.30;;
24151;SDS011;12311;50.866;4.332;2022-09-29T02:28:06;6.43;;;2.95;;
24151;SDS011;12311;50.866;4.332;2022-09-29T02:30:33;6.55;;;2.58;;
24151;SDS011;12311;50.866;4.332;2022-09-29T02:32:59;8.60;;;3.50;;
24151;SDS011;12311;50.866;4.332;2022-09-29T02:35:27;6.55;;;3.00;;
24151;SDS011;12311;50.866;4.332;2022-09-29T02:38:11;6.10;;;2.58;;
24151;SDS011;12311;50.866;4.332;2022-09-29T02:40:55;8.00;;;3.75;;
24151;SDS011;12311;50.866;4.332;2022-09-29T02:46:13;3.78;;;2.47;;
24151;SDS011;12311;50.866;4.332;2022-09-29T02:51:18;7.13;;;3.08;;
24151;SDS011;12311;50.866;4.332;2022-09-29T02:59:52;5.45;;;2.50;;
24151;SDS011;12311;50.866;4.332;2022-09-29T03:02:33;7.90;;;2.88;;
24151;SDS011;12311;50.866;4.332;2022-09-29T03:04:59;7.38;;;3.33;;
24151;SDS011;12311;50.866;4.332;2022-09-29T03:07:25;4.57;;;2.40;;
24151;SDS011;12311;50.866;4.332;2022-09-29T03:09:50;5.43;;;3.58;;
24151;SDS011;12311;50.866;4.332;2022-09-29T03:12:16;4.82;;;2.42;;
24151;SDS011;12311;50.866;4.332;2022-09-29T03:14:42;8.77;;;3.25;;
24151;SDS011;12311;50.866;4.332;2022-09-29T03:17:08;4.72;;;2.47;;
24151;SDS011;12311;50.866;4.332;2022-09-29T03:19:34;5.28;;;2.80;;
24151;SDS011;12311;50.866;4.332;2022-09-29T03:21:59;4.30;;;2.90;;
24151;SDS011;12311;50.866;4.332;2022-09-29T03:24:25;3.88;;;2.90;;
24151;SDS011;12311;50.866;4.332;2022-09-29T03:26:51;5.05;;;3.20;;
24151;SDS011;12311;50.866;4.332;2022-09-29T03:29:16;6.40;;;3.33;;
24151;SDS011;12311;50.866;4.332;2022-09-29T03:31:42;5.28;;;2.58;;
24151;SDS011;12311;50.866;4.332;2022-09-29T03:34:08;5.43;;;2.90;;
24151;SDS011;12311;50.866;4.332;2022-09-29T03:36:33;4.40;;;2.22;;
24151;SDS011;12311;50.866;4.332;2022-09-29T03:38:59;7.75;;;2.88;;
24151;SDS011;12311;50.866;4.332;2022-09-29T03:41:24;13.20;;;3.75;;
24151;SDS011;12311;50.866;4.332;2022-09-29T03:43:50;6.55;;;2.90;;
24151;SDS011;12311;50.866;4.332;2022-09-29T03:46:16;5.03;;;2.20;;
24151;SDS011;12311;50.866;4.332;2022-09-29T03:48:42;4.75;;;2.45;;
24151;SDS011;12311;50.866;4.332;2022-09-29T03:51:08;7.35;;;2.55;;
24151;SDS011;12311;50.866;4.332;2022-09-29T03:53:34;5.53;;;2.60;;
24151;SDS011;12311;50.866;4.332;2022-09-29T03:56:00;4.10;;;2.55;;
24151;SDS011;12311;50.866;4.332;2022-09-29T03:58:27;5.50;;;3.10;;
24151;SDS011;12311;50.866;4.332;2022-09-29T04:00:52;4.80;;;2.72;;
24151;SDS011;12311;50.866;4.332;2022-09-29T04:03:19;6.57;;;2.40;;
24151;SDS011;12311;50.866;4.332;2022-09-29T04:05:45;6.47;;;3.28;;
24151;SDS011;12311;50.866;4.332;2022-09-29T04:08:13;7.72;;;2.50;;
24151;SDS011;12311;50.866;4.332;2022-09-29T04:10:40;7.80;;;2.35;;
24151;SDS011;12311;50.866;4.332;2022-09-29T04:13:06;7.82;;;3.83;;
24151;SDS011;12311;50.866;4.332;2022-09-29T04:15:32;5.70;;;2.83;;
24151;SDS011;12311;50.866;4.332;2022-09-29T04:17:58;4.18;;;1.77;;
24151;SDS011;12311;50.866;4.332;2022-09-29T04:20:24;4.43;;;2.65;;
24151;SDS011;12311;50.866;4.332;2022-09-29T04:22:50;16.95;;;2.67;;
24151;SDS011;12311;50.866;4.332;2022-09-29T04:25:16;6.13;;;2.47;;
24151;SDS011;12311;50.866;4.332;2022-09-29T04:27:42;12.32;;;3.15;;
24151;SDS011;12311;50.866;4.332;2022-09-29T04:30:08;4.43;;;2.25;;
24151;SDS011;12311;50.866;4.332;2022-09-29T04:32:34;6.90;;;2.35;;
24151;SDS011;12311;50.866;4.332;2022-09-29T04:35:00;2.70;;;2.03;;
24151;SDS011;12311;50.866;4.332;2022-09-29T04:37:26;4.00;;;2.25;;
24151;SDS011;12311;50.866;4.332;2022-09-29T04:39:52;6.05;;;2.70;;
24151;SDS011;12311;50.866;4.332;2022-09-29T04:42:18;4.72;;;2.17;;
24151;SDS011;12311;50.866;4.332;2022-09-29T04:44:44;7.18;;;2.67;;
24151;SDS011;12311;50.866;4.332;2022-09-29T04:47:10;6.28;;;2.63;;
24151;SDS011;12311;50.866;4.332;2022-09-29T04:49:36;5.68;;;2.85;;
24151;SDS011;12311;50.866;4.332;2022-09-29T04:52:02;6.47;;;3.03;;
24151;SDS011;12311;50.866;4.332;2022-09-29T04:54:34;5.75;;;2.63;;
24151;SDS011;12311;50.866;4.332;2022-09-29T04:56:59;5.68;;;2.10;;
24151;SDS011;12311;50.866;4.332;2022-09-29T04:59:28;4.05;;;2.10;;
24151;SDS011;12311;50.866;4.332;2022-09-29T05:01:54;4.63;;;2.47;;
24151;SDS011;12311;50.866;4.332;2022-09-29T05:04:19;6.22;;;2.92;;
24151;SDS011;12311;50.866;4.332;2022-09-29T05:06:45;6.00;;;2.88;;
24151;SDS011;12311;50.866;4.332;2022-09-29T05:09:11;4.60;;;2.90;;
24151;SDS011;12311;50.866;4.332;2022-09-29T05:11:37;4.65;;;2.47;;
24151;SDS011;12311;50.866;4.332;2022-09-29T05:14:03;8.57;;;3.47;;
24151;SDS011;12311;50.866;4.332;2022-09-29T05:16:28;7.82;;;4.15;;
24151;SDS011;12311;50.866;4.332;2022-09-29T05:18:55;8.52;;;4.32;;
24151;SDS011;12311;50.866;4.332;2022-09-29T05:21:20;8.40;;;3.22;;
24151;SDS011;12311;50.866;4.332;2022-09-29T05:23:46;7.45;;;3.10;;
24151;SDS011;12311;50.866;4.332;2022-09-29T05:26:12;6.65;;;3.35;;
24151;SDS011;12311;50.866;4.332;2022-09-29T05:28:41;4.70;;;2.25;;
24151;SDS011;12311;50.866;4.332;2022-09-29T05:31:09;5.60;;;2.80;;
24151;SDS011;12311;50.866;4.332;2022-09-29T05:33:34;3.95;;;2.50;;
24151;SDS011;12311;50.866;4.332;2022-09-29T05:36:03;4.53;;;3.10;;
24151;SDS011;12311;50.866;4.332;2022-09-29T05:38:31;4.80;;;2.42;;
24151;SDS011;12311;50.866;4.332;2022-09-29T05:40:57;8.40;;;3.13;;
24151;SDS011;12311;50.866;4.332;2022-09-29T05:43:22;5.10;;;2.70;;
24151;SDS011;12311;50.866;4.332;2022-09-29T05:45:49;6.13;;;2.75;;
24151;SDS011;12311;50.866;4.332;2022-09-29T05:48:15;5.45;;;2.88;;
24151;SDS011;12311;50.866;4.332;2022-09-29T05:50:42;4.97;;;2.25;;
24151;SDS011;12311;50.866;4.332;2022-09-29T05:53:08;5.25;;;2.80;;
24151;SDS011;12311;50.866;4.332;2022-09-29T05:55:35;4.40;;;2.75;;
24151;SDS011;12311;50.866;4.332;2022-09-29T05:58:01;6.10;;;2.10;;
24151;SDS011;12311;50.866;4.332;2022-09-29T06:00:27;4.47;;;2.85;;
24151;SDS011;12311;50.866;4.332;2022-09-29T06:02:56;8.45;;;2.90;;
24151;SDS011;12311;50.866;4.332;2022-09-29T06:05:23;5.15;;;3.30;;
24151;SDS011;12311;50.866;4.332;2022-09-29T06:07:48;4.18;;;2.53;;
24151;SDS011;12311;50.866;4.332;2022-09-29T06:10:14;4.50;;;2.80;;
24151;SDS011;12311;50.866;4.332;2022-09-29T06:12:40;11.63;;;3.47;;
24151;SDS011;12311;50.866;4.332;2022-09-29T06:15:05;9.00;;;3.45;;
24151;SDS011;12311;50.866;4.332;2022-09-29T06:17:31;8.30;;;3.40;;
24151;SDS011;12311;50.866;4.332;2022-09-29T06:19:58;6.55;;;3.10;;
24151;SDS011;12311;50.866;4.332;2022-09-29T06:22:25;5.70;;;3.25;;
24151;SDS011;12311;50.866;4.332;2022-09-29T06:24:51;6.57;;;3.30;;
24151;SDS011;12311;50.866;4.332;2022-09-29T06:27:18;6.47;;;3.17;;
24151;SDS011;12311;50.866;4.332;2022-09-29T06:29:44;8.75;;;2.85;;
24151;SDS011;12311;50.866;4.332;2022-09-29T06:32:09;4.18;;;2.60;;
24151;SDS011;12311;50.866;4.332;2022-09-29T06:34:35;4.32;;;2.65;;
24151;SDS011;12311;50.866;4.332;2022-09-29T06:37:21;5.93;;;3.10;;
24151;SDS011;12311;50.866;4.332;2022-09-29T06:39:58;4.93;;;3.45;;
24151;SDS011;12311;50.866;4.332;2022-09-29T06:42:24;11.00;;;2.78;;
24151;SDS011;12311;50.866;4.332;2022-09-29T06:44:50;4.55;;;3.00;;
24151;SDS011;12311;50.866;4.332;2022-09-29T06:47:16;6.38;;;2.75;;
24151;SDS011;12311;50.866;4.332;2022-09-29T06:49:41;6.88;;;2.85;;
24151;SDS011;12311;50.866;4.332;2022-09-29T06:52:07;10.73;;;3.72;;
24151;SDS011;12311;50.866;4.332;2022-09-29T06:54:32;7.72;;;2.58;;
24151;SDS011;12311;50.866;4.332;2022-09-29T06:56:58;4.43;;;2.65;;
24151;SDS011;12311;50.866;4.332;2022-09-29T06:59:24;5.18;;;2.67;;
24151;SDS011;12311;50.866;4.332;2022-09-29T07:01:50;7.45;;;3.15;;
24151;SDS011;12311;50.866;4.332;2022-09-29T07:04:16;7.80;;;3.10;;
24151;SDS011;12311;50.866;4.332;2022-09-29T07:06:43;3.47;;;2.90;;
24151;SDS011;12311;50.866;4.332;2022-09-29T07:09:09;6.28;;;3.63;;
24151;SDS011;12311;50.866;4.332;2022-09-29T07:11:39;6.32;;;3.42;;
24151;SDS011;12311;50.866;4.332;2022-09-29T07:14:13;7.50;;;4.20;;
24151;SDS011;12311;50.866;4.332;2022-09-29T07:16:40;6.57;;;3.30;;
24151;SDS011;12311;50.866;4.332;2022-09-29T07:19:06;5.65;;;2.45;;
24151;SDS011;12311;50.866;4.332;2022-09-29T07:21:32;4.05;;;2.70;;
24151;SDS011;12311;50.866;4.332;2022-09-29T07:23:57;5.20;;;2.78;;
24151;SDS011;12311;50.866;4.332;2022-09-29T07:26:23;6.45;;;2.88;;
24151;SDS011;12311;50.866;4.332;2022-09-29T07:28:48;6.45;;;3.13;;
24151;SDS011;12311;50.866;4.332;2022-09-29T07:31:15;5.15;;;2.80;;
24151;SDS011;12311;50.866;4.332;2022-09-29T07:33:43;4.97;;;2.55;;
24151;SDS011;12311;50.866;4.332;2022-09-29T07:36:10;7.97;;;2.55;;
24151;SDS011;12311;50.866;4.332;2022-09-29T07:38:44;6.88;;;3.30;;
24151;SDS011;12311;50.866;4.332;2022-09-29T07:41:13;4.93;;;2.28;;
24151;SDS011;12311;50.866;4.332;2022-09-29T07:43:40;5.68;;;2.58;;
24151;SDS011;12311;50.866;4.332;2022-09-29T07:46:06;6.05;;;2.53;;
24151;SDS011;12311;50.866;4.332;2022-09-29T07:48:33;6.63;;;2.50;;
24151;SDS011;12311;50.866;4.332;2022-09-29T07:51:03;5.55;;;2.67;;
24151;SDS011;12311;50.866;4.332;2022-09-29T07:53:31;6.25;;;2.65;;
24151;SDS011;12311;50.866;4.332;2022-09-29T07:56:05;5.05;;;2.70;;
24151;SDS011;12311;50.866;4.332;2022-09-29T07:58:32;3.70;;;2.13;;
24151;SDS011;12311;50.866;4.332;2022-09-29T08:00:59;5.07;;;2.53;;
24151;SDS011;12311;50.866;4.332;2022-09-29T08:03:26;3.35;;;2.30;;
24151;SDS011;12311;50.866;4.332;2022-09-29T08:05:54;6.70;;;2.72;;
24151;SDS011;12311;50.866;4.332;2022-09-29T08:08:20;8.60;;;3.40;;
24151;SDS011;12311;50.866;4.332;2022-09-29T08:10:45;7.30;;;2.97;;
24151;SDS011;12311;50.866;4.332;2022-09-29T08:13:12;7.90;;;2.33;;
24151;SDS011;12311;50.866;4.332;2022-09-29T08:15:37;10.00;;;3.72;;
24151;SDS011;12311;50.866;4.332;2022-09-29T08:18:03;7.20;;;3.22;;
24151;SDS011;12311;50.866;4.332;2022-09-29T08:20:28;12.18;;;3.08;;
24151;SDS011;12311;50.866;4.332;2022-09-29T08:22:54;4.93;;;2.88;;
24151;SDS011;12311;50.866;4.332;2022-09-29T08:25:22;7.55;;;2.80;;
24151;SDS011;12311;50.866;4.332;2022-09-29T08:27:50;5.57;;;2.63;;
24151;SDS011;12311;50.866;4.332;2022-09-29T08:30:16;4.03;;;2.30;;
24151;SDS011;12311;50.866;4.332;2022-09-29T08:32:42;5.80;;;3.28;;
24151;SDS011;12311;50.866;4.332;2022-09-29T08:35:08;7.03;;;2.88;;
24151;SDS011;12311;50.866;4.332;2022-09-29T08:37:34;10.63;;;3.33;;
24151;SDS011;12311;50.866;4.332;2022-09-29T08:40:00;9.10;;;2.42;;
24151;SDS011;12311;50.866;4.332;2022-09-29T08:44:59;5.10;;;2.47;;
24151;SDS011;12311;50.866;4.332;2022-09-29T08:47:31;9.68;;;2.67;;
24151;SDS011;12311;50.866;4.332;2022-09-29T08:52:47;6.20;;;2.55;;
24151;SDS011;12311;50.866;4.332;2022-09-29T08:57:45;5.40;;;2.80;;
24151;SDS011;12311;50.866;4.332;2022-09-29T09:00:13;7.68;;;2.25;;
24151;SDS011;12311;50.866;4.332;2022-09-29T09:02:46;5.20;;;2.33;;
24151;SDS011;12311;50.866;4.332;2022-09-29T09:10:48;2.80;;;1.75;;
24151;SDS011;12311;50.866;4.332;2022-09-29T09:13:30;5.55;;;1.95;;
24151;SDS011;12311;50.866;4.332;2022-09-29T09:21:38;2.30;;;1.60;;
24151;SDS011;12311;50.866;4.332;2022-09-29T09:27:15;3.80;;;1.98;;
24151;SDS011;12311;50.866;4.332;2022-09-29T09:29:50;3.78;;;2.28;;
24151;SDS011;12311;50.866;4.332;2022-09-29T09:32:30;4.07;;;2.05;;
24151;SDS011;12311;50.866;4.332;2022-09-29T09:37:35;6.22;;;1.95;;
24151;SDS011;12311;50.866;4.332;2022-09-29T09:40:15;4.63;;;2.05;;
24151;SDS011;12311;50.866;4.332;2022-09-29T09:43:19;4.10;;;1.95;;
24151;SDS011;12311;50.866;4.332;2022-09-29T09:48:32;3.72;;;2.20;;
24151;SDS011;12311;50.866;4.332;2022-09-29T09:51:17;2.90;;;1.45;;
24151;SDS011;12311;50.866;4.332;2022-09-29T09:53:47;2.53;;;1.40;;
24151;SDS011;12311;50.866;4.332;2022-09-29T09:56:20;1.35;;;1.10;;
24151;SDS011;12311;50.866;4.332;2022-09-29T09:59:13;6.88;;;1.35;;
24151;SDS011;12311;50.866;4.332;2022-09-29T10:01:49;2.90;;;1.05;;
24151;SDS011;12311;50.866;4.332;2022-09-29T10:04:15;4.45;;;1.20;;
24151;SDS011;12311;50.866;4.332;2022-09-29T10:06:40;2.58;;;1.38;;
24151;SDS011;12311;50.866;4.332;2022-09-29T10:09:10;1.92;;;1.30;;
24151;SDS011;12311;50.866;4.332;2022-09-29T10:11:39;1.42;;;1.00;;
24151;SDS011;12311;50.866;4.332;2022-09-29T10:14:21;1.70;;;0.80;;
24151;SDS011;12311;50.866;4.332;2022-09-29T10:16:54;2.58;;;1.23;;
24151;SDS011;12311;50.866;4.332;2022-09-29T10:19:28;1.55;;;1.08;;
24151;SDS011;12311;50.866;4.332;2022-09-29T10:22:19;1.35;;;0.88;;
24151;SDS011;12311;50.866;4.332;2022-09-29T10:24:45;2.42;;;1.02;;
24151;SDS011;12311;50.866;4.332;2022-09-29T10:27:16;2.15;;;0.98;;
24151;SDS011;12311;50.866;4.332;2022-09-29T10:29:44;2.20;;;1.00;;
24151;SDS011;12311;50.866;4.332;2022-09-29T10:34:45;3.80;;;1.25;;
24151;SDS011;12311;50.866;4.332;2022-09-29T10:37:20;2.33;;;0.82;;
24151;SDS011;12311;50.866;4.332;2022-09-29T10:39:49;1.23;;;0.80;;
24151;SDS011;12311;50.866;4.332;2022-09-29T10:42:22;1.60;;;0.80;;
24151;SDS011;12311;50.866;4.332;2022-09-29T10:47:39;4.25;;;1.58;;
24151;SDS011;12311;50.866;4.332;2022-09-29T10:50:26;2.88;;;1.10;;
24151;SDS011;12311;50.866;4.332;2022-09-29T10:52:54;1.20;;;0.80;;
24151;SDS011;12311;50.866;4.332;2022-09-29T10:55:23;0.70;;;0.60;;
24151;SDS011;12311;50.866;4.332;2022-09-29T10:57:51;2.45;;;0.82;;
24151;SDS011;12311;50.866;4.332;2022-09-29T11:00:23;1.35;;;0.77;;
24151;SDS011;12311;50.866;4.332;2022-09-29T11:02:51;2.53;;;1.20;;
24151;SDS011;12311;50.866;4.332;2022-09-29T11:05:21;2.05;;;1.15;;
24151;SDS011;12311;50.866;4.332;2022-09-29T11:07:48;0.73;;;0.60;;
24151;SDS011;12311;50.866;4.332;2022-09-29T11:10:26;4.63;;;0.93;;
24151;SDS011;12311;50.866;4.332;2022-09-29T11:12:53;1.02;;;0.80;;
24151;SDS011;12311;50.866;4.332;2022-09-29T11:15:28;1.60;;;1.00;;
24151;SDS011;12311;50.866;4.332;2022-09-29T11:18:04;0.80;;;0.70;;
24151;SDS011;12311;50.866;4.332;2022-09-29T11:20:58;1.63;;;0.85;;
24151;SDS011;12311;50.866;4.332;2022-09-29T11:26:59;1.98;;;0.70;;
24151;SDS011;12311;50.866;4.332;2022-09-29T11:29:48;1.33;;;0.73;;
24151;SDS011;12311;50.866;4.332;2022-09-29T11:32:30;0.85;;;0.52;;
24151;SDS011;12311;50.866;4.332;2022-09-29T11:41:11;0.50;;;0.43;;
24151;SDS011;12311;50.866;4.332;2022-09-29T11:44:23;0.90;;;0.55;;
24151;SDS011;12311;50.866;4.332;2022-09-29T11:49:43;1.30;;;0.60;;
24151;SDS011;12311;50.866;4.332;2022-09-29T11:52:57;1.13;;;0.77;;
24151;SDS011;12311;50.866;4.332;2022-09-29T11:58:30;1.63;;;0.90;;
24151;SDS011;12311;50.866;4.332;2022-09-29T12:01:29;1.60;;;0.80;;
24151;SDS011;12311;50.866;4.332;2022-09-29T12:04:20;1.55;;;0.90;;
24151;SDS011;12311;50.866;4.332;2022-09-29T12:13:14;1.15;;;0.70;;
24151;SDS011;12311;50.866;4.332;2022-09-29T12:18:10;1.08;;;0.77;;
24151;SDS011;12311;50.866;4.332;2022-09-29T12:20:51;0.55;;;0.52;;
24151;SDS011;12311;50.866;4.332;2022-09-29T12:23:19;1.05;;;0.60;;
24151;SDS011;12311;50.866;4.332;2022-09-29T12:25:58;1.02;;;0.52;;
24151;SDS011;12311;50.866;4.332;2022-09-29T12:28:41;1.00;;;0.70;;
24151;SDS011;12311;50.866;4.332;2022-09-29T12:31:16;2.53;;;0.88;;
24151;SDS011;12311;50.866;4.332;2022-09-29T12:36:58;2.13;;;0.75;;
24151;SDS011;12311;50.866;4.332;2022-09-29T12:42:19;1.48;;;0.60;;
24151;SDS011;12311;50.866;4.332;2022-09-29T12:53:38;0.98;;;0.93;;
24151;SDS011;12311;50.866;4.332;2022-09-29T12:56:19;1.92;;;0.75;;
24151;SDS011;12311;50.866;4.332;2022-09-29T12:58:53;2.38;;;0.50;;
24151;SDS011;12311;50.866;4.332;2022-09-29T13:01:28;0.63;;;0.50;;
24151;SDS011;12311;50.866;4.332;2022-09-29T13:07:15;0.73;;;0.60;;
24151;SDS011;12311;50.866;4.332;2022-09-29T13:10:28;0.55;;;0.50;;
24151;SDS011;12311;50.866;4.332;2022-09-29T13:19:04;0.88;;;0.70;;
24151;SDS011;12311;50.866;4.332;2022-09-29T13:30:18;0.88;;;0.50;;
24151;SDS011;12311;50.866;4.332;2022-09-29T13:32:49;0.82;;;0.40;;
24151;SDS011;12311;50.866;4.332;2022-09-29T13:35:20;1.08;;;0.55;;
24151;SDS011;12311;50.866;4.332;2022-09-29T13:37:55;1.70;;;0.40;;
24151;SDS011;12311;50.866;4.332;2022-09-29T13:40:29;0.52;;;0.40;;
24151;SDS011;12311;50.866;4.332;2022-09-29T13:43:00;0.40;;;0.38;;
24151;SDS011;12311;50.866;4.332;2022-09-29T13:47:59;0.68;;;0.43;;
24151;SDS011;12311;50.866;4.332;2022-09-29T13:50:52;1.75;;;0.80;;
24151;SDS011;12311;50.866;4.332;2022-09-29T13:58:24;0.57;;;0.47;;
24151;SDS011;12311;50.866;4.332;2022-09-29T14:00:52;0.65;;;0.50;;
24151;SDS011;12311;50.866;4.332;2022-09-29T14:03:23;0.57;;;0.45;;
24151;SDS011;12311;50.866;4.332;2022-09-29T14:06:03;0.60;;;0.40;;
24151;SDS011;12311;50.866;4.332;2022-09-29T14:08:35;1.60;;;0.70;;
24151;SDS011;12311;50.866;4.332;2022-09-29T14:11:25;0.52;;;0.50;;
24151;SDS011;12311;50.866;4.332;2022-09-29T14:14:06;0.65;;;0.35;;
24151;SDS011;12311;50.866;4.332;2022-09-29T14:16:56;0.47;;;0.30;;
24151;SDS011;12311;50.866;4.332;2022-09-29T14:27:37;0.68;;;0.30;;
24151;SDS011;12311;50.866;4.332;2022-09-29T14:35:38;4.45;;;0.40;;
24151;SDS011;12311;50.866;4.332;2022-09-29T14:46:30;2.08;;;0.50;;
24151;SDS011;12311;50.866;4.332;2022-09-29T14:52:33;2.22;;;0.45;;
24151;SDS011;12311;50.866;4.332;2022-09-29T14:58:02;0.45;;;0.45;;
24151;SDS011;12311;50.866;4.332;2022-09-29T15:03:12;1.67;;;0.82;;
24151;SDS011;12311;50.866;4.332;2022-09-29T15:06:05;0.50;;;0.50;;
24151;SDS011;12311;50.866;4.332;2022-09-29T15:08:39;1.75;;;0.73;;
24151;SDS011;12311;50.866;4.332;2022-09-29T15:11:26;2.97;;;0.80;;
24151;SDS011;12311;50.866;4.332;2022-09-29T15:14:29;1.25;;;0.70;;
24151;SDS011;12311;50.866;4.332;2022-09-29T15:22:38;1.63;;;1.00;;
24151;SDS011;12311;50.866;4.332;2022-09-29T15:25:24;1.75;;;0.98;;
24151;SDS011;12311;50.866;4.332;2022-09-29T15:30:37;1.33;;;0.80;;
24151;SDS011;12311;50.866;4.332;2022-09-29T15:33:13;4.18;;;1.50;;
24151;SDS011;12311;50.866;4.332;2022-09-29T15:35:42;0.80;;;0.70;;
24151;SDS011;12311;50.866;4.332;2022-09-29T15:40:34;3.10;;;1.35;;
24151;SDS011;12311;50.866;4.332;2022-09-29T15:43:17;1.05;;;0.75;;
24151;SDS011;12311;50.866;4.332;2022-09-29T15:45:59;1.30;;;1.00;;
24151;SDS011;12311;50.866;4.332;2022-09-29T15:48:27;1.95;;;0.90;;
24151;SDS011;12311;50.866;4.332;2022-09-29T15:50:55;1.90;;;1.20;;
24151;SDS011;12311;50.866;4.332;2022-09-29T15:53:22;2.75;;;1.20;;
24151;SDS011;12311;50.866;4.332;2022-09-29T15:55:51;2.05;;;0.73;;
24151;SDS011;12311;50.866;4.332;2022-09-29T15:58:39;1.95;;;0.90;;
24151;SDS011;12311;50.866;4.332;2022-09-29T16:01:10;1.58;;;0.80;;
24151;SDS011;12311;50.866;4.332;2022-09-29T16:03:39;4.63;;;1.00;;
24151;SDS011;12311;50.866;4.332;2022-09-29T16:09:00;1.67;;;0.90;;
24151;SDS011;12311;50.866;4.332;2022-09-29T16:11:30;1.88;;;1.08;;
24151;SDS011;12311;50.866;4.332;2022-09-29T16:14:40;7.22;;;1.45;;
24151;SDS011;12311;50.866;4.332;2022-09-29T16:16:49;1.58;;;1.08;;
24151;SDS011;12311;50.866;4.332;2022-09-29T16:19:19;2.25;;;1.17;;
24151;SDS011;12311;50.866;4.332;2022-09-29T16:21:54;2.25;;;1.40;;
24151;SDS011;12311;50.866;4.332;2022-09-29T16:24:31;4.18;;;1.10;;
24151;SDS011;12311;50.866;4.332;2022-09-29T16:26:59;2.10;;;1.05;;
24151;SDS011;12311;50.866;4.332;2022-09-29T16:29:32;2.47;;;1.33;;
24151;SDS011;12311;50.866;4.332;2022-09-29T16:32:01;2.25;;;1.15;;
24151;SDS011;12311;50.866;4.332;2022-09-29T16:35:16;3.60;;;1.50;;
24151;SDS011;12311;50.866;4.332;2022-09-29T16:38:15;1.52;;;1.15;;
24151;SDS011;12311;50.866;4.332;2022-09-29T16:40:50;1.83;;;1.30;;
24151;SDS011;12311;50.866;4.332;2022-09-29T16:43:24;2.90;;;1.23;;
24151;SDS011;12311;50.866;4.332;2022-09-29T16:45:55;2.63;;;1.40;;
24151;SDS011;12311;50.866;4.332;2022-09-29T16:48:23;2.13;;;1.20;;
24151;SDS011;12311;50.866;4.332;2022-09-29T16:50:54;3.35;;;1.83;;
24151;SDS011;12311;50.866;4.332;2022-09-29T16:53:29;2.88;;;1.35;;
24151;SDS011;12311;50.866;4.332;2022-09-29T16:55:58;2.17;;;1.02;;
24151;SDS011;12311;50.866;4.332;2022-09-29T16:58:26;4.93;;;1.23;;
24151;SDS011;12311;50.866;4.332;2022-09-29T17:00:52;4.40;;;0.75;;
24151;SDS011;12311;50.866;4.332;2022-09-29T17:03:18;2.10;;;1.13;;
24151;SDS011;12311;50.866;4.332;2022-09-29T17:05:44;1.58;;;0.98;;
24151;SDS011;12311;50.866;4.332;2022-09-29T17:08:20;2.60;;;1.05;;
24151;SDS011;12311;50.866;4.332;2022-09-29T17:10:51;2.08;;;1.00;;
24151;SDS011;12311;50.866;4.332;2022-09-29T17:13:18;2.42;;;1.05;;
24151;SDS011;12311;50.866;4.332;2022-09-29T17:15:45;2.17;;;1.23;;
24151;SDS011;12311;50.866;4.332;2022-09-29T17:18:14;1.52;;;1.13;;
24151;SDS011;12311;50.866;4.332;2022-09-29T17:20:41;1.77;;;1.20;;
24151;SDS011;12311;50.866;4.332;2022-09-29T17:23:07;2.70;;;1.40;;
24151;SDS011;12311;50.866;4.332;2022-09-29T17:25:34;3.10;;;1.50;;
24151;SDS011;12311;50.866;4.332;2022-09-29T17:28:01;1.40;;;1.00;;
24151;SDS011;12311;50.866;4.332;2022-09-29T17:30:36;2.50;;;1.45;;
24151;SDS011;12311;50.866;4.332;2022-09-29T17:33:06;2.47;;;1.33;;
24151;SDS011;12311;50.866;4.332;2022-09-29T17:35:34;2.42;;;1.30;;
24151;SDS011;12311;50.866;4.332;2022-09-29T17:38:02;5.10;;;1.88;;
24151;SDS011;12311;50.866;4.332;2022-09-29T17:40:42;2.78;;;1.73;;
24151;SDS011;12311;50.866;4.332;2022-09-29T17:43:10;3.78;;;1.77;;
24151;SDS011;12311;50.866;4.332;2022-09-29T17:45:35;2.40;;;1.27;;
24151;SDS011;12311;50.866;4.332;2022-09-29T17:48:06;1.73;;;1.20;;
24151;SDS011;12311;50.866;4.332;2022-09-29T17:50:54;5.00;;;1.58;;
24151;SDS011;12311;50.866;4.332;2022-09-29T17:53:21;2.90;;;1.65;;
24151;SDS011;12311;50.866;4.332;2022-09-29T17:55:48;3.33;;;1.40;;
24151;SDS011;12311;50.866;4.332;2022-09-29T17:58:16;3.33;;;1.60;;
24151;SDS011;12311;50.866;4.332;2022-09-29T18:00:43;5.13;;;1.90;;
24151;SDS011;12311;50.866;4.332;2022-09-29T18:03:14;2.72;;;1.50;;
24151;SDS011;12311;50.866;4.332;2022-09-29T18:05:42;2.85;;;1.38;;
24151;SDS011;12311;50.866;4.332;2022-09-29T18:08:13;3.13;;;1.35;;
24151;SDS011;12311;50.866;4.332;2022-09-29T18:10:42;5.25;;;1.60;;
24151;SDS011;12311;50.866;4.332;2022-09-29T18:13:11;4.00;;;1.80;;